createdAt,value
2022-08-02T00:03:37.656Z,2.22
2022-08-02T00:08:40.165Z,2.13
2022-08-02T00:13:43.013Z,2.15
2022-08-02T00:18:47.050Z,2.00
2022-08-02T00:24:27.713Z,2.20
2022-08-02T00:29:12.135Z,2.30
2022-08-02T00:34:28.703Z,2.60
2022-08-02T00:39:35.776Z,2.55
2022-08-02T00:44:38.502Z,2.58
2022-08-02T00:49:42.507Z,3.10
2022-08-02T00:54:45.021Z,3.05
2022-08-02T00:59:47.482Z,3.03
2022-08-02T01:04:51.310Z,2.70
2022-08-02T01:09:54.427Z,3.03
2022-08-02T01:14:59.563Z,2.42
2022-08-02T01:20:13.304Z,2.60
2022-08-02T01:25:30.254Z,2.57
2022-08-02T01:30:36.058Z,2.55
2022-08-02T01:35:50.514Z,2.60
2022-08-02T01:40:55.608Z,2.50
2022-08-02T01:51:05.306Z,2.47
2022-08-02T01:56:10.102Z,2.28
2022-08-02T02:01:18.726Z,2.50
2022-08-02T02:06:24.006Z,3.05
2022-08-02T02:12:12.028Z,2.47
2022-08-02T02:16:50.858Z,2.60
2022-08-02T02:21:53.499Z,2.60
2022-08-02T02:26:59.957Z,2.67
2022-08-02T02:32:06.754Z,2.95
2022-08-02T02:37:15.013Z,2.47
2022-08-02T02:42:20.211Z,2.97
2022-08-02T02:47:41.526Z,2.70
2022-08-02T02:52:45.620Z,2.38
2022-08-02T02:57:48.806Z,2.80
2022-08-02T03:02:52.891Z,2.63
2022-08-02T03:07:55.450Z,2.65
2022-08-02T03:12:59.625Z,2.60
2022-08-02T03:18:03.489Z,2.85
2022-08-02T03:23:05.980Z,3.00
2022-08-02T03:28:09.622Z,2.80
2022-08-02T03:33:13.703Z,2.63
2022-08-02T03:38:17.387Z,3.03
2022-08-02T03:43:20.514Z,2.30
2022-08-02T03:48:34.339Z,2.15
2022-08-02T03:53:38.749Z,2.60
2022-08-02T03:58:43.651Z,2.70
2022-08-02T04:03:50.906Z,2.50
2022-08-02T04:08:53.534Z,2.78
2022-08-02T04:13:56.624Z,2.58
2022-08-02T04:19:03.338Z,2.83
2022-08-02T04:24:10.660Z,3.17
2022-08-02T04:29:14.951Z,2.63
2022-08-02T04:34:18.799Z,3.10
2022-08-02T04:39:21.559Z,2.88
2022-08-02T04:44:24.194Z,2.65
2022-08-02T04:49:28.018Z,2.30
2022-08-02T04:54:30.498Z,2.70
2022-08-02T04:59:32.940Z,2.70
2022-08-02T05:04:36.713Z,2.60
2022-08-02T05:09:39.166Z,3.28
2022-08-02T05:14:41.600Z,2.80
2022-08-02T05:19:45.410Z,2.47
2022-08-02T05:24:47.920Z,2.15
2022-08-02T05:29:53.965Z,2.13
2022-08-02T05:35:02.754Z,2.00
2022-08-02T05:40:12.668Z,2.65
2022-08-02T05:45:15.723Z,2.08
2022-08-02T05:50:19.994Z,2.50
2022-08-02T05:55:28.288Z,2.17
2022-08-02T06:00:32.584Z,3.10
2022-08-02T06:05:42.386Z,2.67
2022-08-02T06:10:47.039Z,2.22
2022-08-02T06:15:53.954Z,2.42
2022-08-02T06:22:30.657Z,2.45
2022-08-02T06:26:24.872Z,1.90
2022-08-02T06:31:27.458Z,2.53
2022-08-02T06:36:39.855Z,2.17
2022-08-02T06:41:45.395Z,2.20
2022-08-02T06:47:11.947Z,2.00
2022-08-02T06:52:12.630Z,2.13
2022-08-02T06:57:15.555Z,2.22
2022-08-02T07:02:18.433Z,2.85
2022-08-02T07:07:22.245Z,2.38
2022-08-02T07:17:27.520Z,2.13
2022-08-02T07:22:31.530Z,2.08
2022-08-02T07:32:36.706Z,1.90
2022-08-02T07:37:55.448Z,2.15
2022-08-02T07:43:04.788Z,2.80
2022-08-02T07:48:08.496Z,2.28
2022-08-02T07:53:12.320Z,2.47
2022-08-02T07:58:14.758Z,1.92
2022-08-02T08:03:17.206Z,2.10
2022-08-02T08:08:21.222Z,2.33
2022-08-02T08:13:23.677Z,2.22
2022-08-02T08:18:26.169Z,2.00
2022-08-02T08:23:29.961Z,2.30
2022-08-02T08:28:32.519Z,2.42
2022-08-02T08:33:35.094Z,2.00
2022-08-02T08:38:38.855Z,2.20
2022-08-02T08:43:41.336Z,1.70
2022-08-02T08:48:50.207Z,2.30
2022-08-02T08:53:56.015Z,2.50
2022-08-02T08:58:58.807Z,2.40
2022-08-02T09:04:01.624Z,2.20
2022-08-02T09:09:05.682Z,1.52
2022-08-02T09:14:08.273Z,1.80
2022-08-02T09:19:23.339Z,1.70
2022-08-02T09:24:27.223Z,2.35
2022-08-02T09:29:44.439Z,2.30
2022-08-02T09:34:59.670Z,1.70
2022-08-02T09:40:05.667Z,2.00
2022-08-02T09:45:10.275Z,1.92
2022-08-02T09:50:15.105Z,2.00
2022-08-02T09:55:19.245Z,1.77
2022-08-02T10:00:37.247Z,1.95
2022-08-02T10:05:54.025Z,3.05
2022-08-02T10:11:03.667Z,2.22
2022-08-02T10:16:07.138Z,2.30
2022-08-02T10:21:15.880Z,1.83
2022-08-02T10:26:21.369Z,1.85
2022-08-02T10:31:28.398Z,2.05
2022-08-02T10:36:33.272Z,1.95
2022-08-02T10:41:44.958Z,2.15
2022-08-02T10:46:47.442Z,1.92
2022-08-02T10:51:57.685Z,1.60
2022-08-02T10:57:02.473Z,2.10
2022-08-02T11:02:07.010Z,1.80
2022-08-02T11:07:11.608Z,1.88
2022-08-02T11:12:16.633Z,2.33
2022-08-02T11:17:20.467Z,1.40
2022-08-02T11:22:25.793Z,1.70
2022-08-02T11:27:31.267Z,1.88
2022-08-02T11:32:36.099Z,1.80
2022-08-02T11:37:42.164Z,1.70
2022-08-02T11:42:50.316Z,1.45
2022-08-02T11:47:54.559Z,1.77
2022-08-02T11:52:57.160Z,1.40
2022-08-02T12:03:09.057Z,1.50
2022-08-02T12:08:11.686Z,1.50
2022-08-02T12:13:15.688Z,1.38
2022-08-02T12:18:38.130Z,1.40
2022-08-02T12:24:00.117Z,1.50
2022-08-02T12:29:04.987Z,1.15
2022-08-02T12:34:16.927Z,1.20
2022-08-02T12:39:19.394Z,1.20
2022-08-02T12:44:23.204Z,1.50
2022-08-02T12:49:25.711Z,1.42
2022-08-02T12:54:32.139Z,1.35
2022-08-02T12:59:38.824Z,1.60
2022-08-02T13:04:42.117Z,1.27
2022-08-02T13:10:03.085Z,1.27
2022-08-02T13:15:12.423Z,1.52
2022-08-02T13:20:31.763Z,1.45
2022-08-02T13:25:34.407Z,1.73
2022-08-02T13:30:38.858Z,1.35
2022-08-02T13:35:41.453Z,1.33
2022-08-02T13:41:04.401Z,1.50
2022-08-02T13:46:09.080Z,1.38
2022-08-02T13:51:14.833Z,1.80
2022-08-02T13:56:17.594Z,1.63
2022-08-02T14:01:21.627Z,1.60
2022-08-02T14:06:24.315Z,1.65
2022-08-02T14:11:27.049Z,1.52
2022-08-02T14:16:33.263Z,1.63
2022-08-02T14:21:45.920Z,1.75
2022-08-02T14:26:49.892Z,2.30
2022-08-02T14:31:53.720Z,2.35
2022-08-02T14:36:56.390Z,1.67
2022-08-02T14:42:00.879Z,1.63
2022-08-02T14:47:05.937Z,1.55
2022-08-02T14:52:08.469Z,1.52
2022-08-02T14:57:11.775Z,1.90
2022-08-02T15:02:16.143Z,2.00
2022-08-02T15:07:18.807Z,1.45
2022-08-02T15:12:21.573Z,1.13
2022-08-02T15:17:25.435Z,1.50
2022-08-02T15:22:28.961Z,1.50
2022-08-02T15:27:31.517Z,1.52
2022-08-02T15:32:35.495Z,2.20
2022-08-02T15:37:41.321Z,1.30
2022-08-02T15:42:44.568Z,1.77
2022-08-02T15:52:53.355Z,2.58
2022-08-02T15:57:56.038Z,1.55
2022-08-02T16:02:59.986Z,2.53
2022-08-02T16:08:02.690Z,2.00
2022-08-02T16:13:23.150Z,2.72
2022-08-02T16:18:26.937Z,3.30
2022-08-02T16:24:01.111Z,4.10
2022-08-02T16:28:52.213Z,5.03
2022-08-02T16:33:57.188Z,3.13
2022-08-02T16:38:59.960Z,5.95
2022-08-02T16:44:02.486Z,5.20
2022-08-02T16:49:07.217Z,3.10
2022-08-02T16:54:29.662Z,3.50
2022-08-02T16:59:42.780Z,2.35
2022-08-02T17:04:48.365Z,1.70
2022-08-02T17:10:02.350Z,2.25
2022-08-02T17:16:15.700Z,2.13
2022-08-02T17:20:32.512Z,1.40
2022-08-02T17:25:41.672Z,1.35
2022-08-02T17:30:44.449Z,1.20
2022-08-02T17:35:52.368Z,1.10
2022-08-02T17:40:58.653Z,1.05
2022-08-02T17:46:02.604Z,1.17
2022-08-02T17:51:07.040Z,1.27
2022-08-02T17:56:13.244Z,1.10
2022-08-02T18:01:24.262Z,1.08
2022-08-02T18:06:28.594Z,1.08
2022-08-02T18:11:51.877Z,1.00
2022-08-02T18:16:53.749Z,1.38
2022-08-02T18:21:57.623Z,0.95
2022-08-02T18:27:00.125Z,1.20
2022-08-02T18:32:03.163Z,1.10
2022-08-02T18:37:06.950Z,1.10
2022-08-02T18:42:10.893Z,1.30
2022-08-02T18:47:20.272Z,1.23
2022-08-02T18:52:30.734Z,1.40
2022-08-02T18:58:18.989Z,1.23
2022-08-02T19:02:58.630Z,1.80
2022-08-02T19:08:02.680Z,2.20
2022-08-02T19:13:06.178Z,1.60
2022-08-02T19:18:26.881Z,2.67
2022-08-02T19:23:33.852Z,1.90
2022-08-02T19:28:36.849Z,1.80
2022-08-02T19:34:04.382Z,1.95
2022-08-02T19:39:03.064Z,2.10
2022-08-02T19:44:23.042Z,1.80
2022-08-02T19:49:39.237Z,2.10
2022-08-02T19:54:54.500Z,1.80
2022-08-02T19:59:59.145Z,2.00
2022-08-02T20:05:08.175Z,1.95
2022-08-02T20:10:26.696Z,2.05
2022-08-02T20:15:56.142Z,2.10
2022-08-02T20:20:54.548Z,1.90
2022-08-02T20:26:02.518Z,2.33
2022-08-02T20:31:08.789Z,1.98
2022-08-02T20:36:14.443Z,2.22
2022-08-02T20:41:21.486Z,2.42
2022-08-02T20:46:25.070Z,2.03
2022-08-02T20:51:32.563Z,2.45
2022-08-02T20:56:38.827Z,2.20
2022-08-02T21:01:57.286Z,2.63
2022-08-02T21:07:00.845Z,1.80
2022-08-02T21:12:12.519Z,2.60
2022-08-02T21:17:22.594Z,2.47
2022-08-02T21:22:30.709Z,2.30
2022-08-02T21:27:51.615Z,2.50
2022-08-02T21:32:57.076Z,2.20
2022-08-02T21:38:00.463Z,2.40
2022-08-02T21:43:05.077Z,2.00
2022-08-02T21:48:12.039Z,2.40
2022-08-02T21:53:18.967Z,2.97
2022-08-02T21:58:40.855Z,2.22
2022-08-02T22:03:55.010Z,2.78
2022-08-02T22:08:58.784Z,1.98
2022-08-02T22:14:03.941Z,2.17
2022-08-02T22:19:07.020Z,1.90
2022-08-02T22:24:13.055Z,2.15
2022-08-02T22:29:24.055Z,1.90
2022-08-02T22:34:51.614Z,2.80
2022-08-02T22:40:08.714Z,2.10
2022-08-02T22:45:14.238Z,2.20
2022-08-02T22:50:17.901Z,1.83
2022-08-02T22:55:23.126Z,1.80
2022-08-02T23:00:28.155Z,2.13
2022-08-02T23:05:31.807Z,2.03
2022-08-02T23:10:34.950Z,1.90
2022-08-02T23:15:58.754Z,2.08
2022-08-02T23:21:01.937Z,1.80
2022-08-02T23:26:05.025Z,1.90
2022-08-02T23:31:34.125Z,2.33
2022-08-02T23:36:41.216Z,1.83
2022-08-02T23:41:44.307Z,2.30
2022-08-02T23:46:54.411Z,2.05
2022-08-02T23:52:01.415Z,1.92
2022-08-02T23:57:20.461Z,2.20
